SEIO2: N.Canadian R., Seiling, OK

Data processed at Thu May 23 2019 23:50


All information presented herein is the property of the government of the United States of America and may be revised or deleted at any time without prior notice.
Dissemination of this information without the expressed written consent of the Public Affairs Office, Tulsa District U.S. Army Corps of Engineers is strictly prohibited.
These data are gathered electronically and, as presented, have not undergone any form of quality control. These data are not guaranteed to be valid or correct.
Go to home page.
Go to station list.
Go to home page.

Upstream stations:

Downstream station:
Previous Day
Next Day
Current Day
    
SHEF ID:       SEIO2     North Canadian River near Seilin
STATION TYPE:  
Regulating: Stage =    11.00, Flow =     1272

               PRECIP     STAGE  STAGE(2)  RIV-FLOW  BAT-LOAD
                   in        ft        ft       cfs      volt
              Ccp-Rev   Ccp-Rev   Ccp-Rev   Ccp-Rev   Ccp-Rev
(US/Central)
05/23 00:00      0.00     12.45      ----      2048     12.83
05/23 01:00      0.00     12.41      ----      2021     12.83
05/23 02:00      0.00     12.38      ----      2000     12.83
05/23 03:00      0.00     12.37      ----      1994     12.77
05/23 04:00      0.00     12.34      ----      1973     12.77
05/23 05:00      0.00     12.30      ----      1947     12.77
05/23 06:00      0.00     12.27      ----      1927     12.71
05/23 07:00      0.00     12.23      ----      1900     12.71
05/23 08:00      0.00     12.19      ----      1874     12.77
05/23 09:00      0.00     12.16      ----      1855     12.89
05/23 10:00      0.00     12.12      ----      1829     13.12
05/23 11:00      0.00     12.07      ----      1797     13.53
05/23 12:00      0.00     11.99      ----      1747     13.53
05/23 13:00      0.00     11.98      ----      1741     13.18
05/23 14:00      0.00     11.95      ----      1723     13.12
05/23 15:00      0.00     11.87      ----      1674     13.07
05/23 16:00      0.00     11.76      ----      1609     13.07
05/23 17:00      0.00     11.70      ----      1574     13.07
05/23 18:00      0.00     11.62      ----      1533     13.07
05/23 19:00      0.00     11.51      ----      1485     13.00
05/23 20:00      0.00     11.43      ----      1450     12.89
05/23 21:00      0.00     11.33      ----      1407     12.89
05/23 22:00      0.00     11.21      ----      1357     12.89
05/23 23:00      0.00     11.13      ----      1324     12.89